Pagrindinis puslapis
METAR-TAF:

METAR-TAF

Oro uostai :

Enfidha-Hammamet

Hamametas, Tunisas

platuma: 36-04-34N, ilguma: 10-26-19E, Aukštis: 6 m

Dabartinis oras

Ataskaita buvo paskelbta 24 minutes, ne 01:30 UTC
Vėjas 4 kt iš Pietų
Temperatūra 20°C
Drėgmė 73%
Slėgis 1016 hPa
Matomumas 10 km arba daugiau
nėra debesų žemiau 1500 m ir nėra kamuolinių lietaus debesų

METAR: DTNH 300130Z 17004KT CAVOK 20/15 Q1016

Laikas: 02:54 (01:54 UTC)

Prognozė

Ataskaita buvo paskelbta 2 valandos ir 54 minutes, ne 23:00 UTC
Prognozė galioja nuo 30 metu 00 UTC su 30 metu 24 UTC
Vėjas 5 kt iš Pietų/Pietvakarių
Matomumas 10 km arba daugiau
nėra debesų žemiau 1500 m ir nėra kamuolinių lietaus debesų
Tikimybė 40% :
Laikinai
nuo 30 metu 05 UTC su 30 metu 08 UTC
Vėjas 3 kt nuo kintamojo kryptimis
Matomumas: 2000 m
Mažai debesys ne aukštis 1400 ft
rūkana
Tapsmas
nuo 30 metu 10 UTC su 30 metu 12 UTC
Vėjas 5 kt iš Pietų

TAF: DTNH 292300Z 3000/3024 20005KT CAVOK PROB40 TEMPO 3005/3008 VRB03KT 2000 BR FEW014 BECMG 3010/3012 17005KT

Orai ataskaitas ir orų prognozės (METAR, TAF).

turimą stotys yra geltonos ir raudonos taškus žemėlapyje.

Perkelti pele per norėdami pamatyti stoties vardą.

Tada spustelėkite, norėdami matyti oro stebėjimo ir prognozės.

Norėdami pakeisti žemėlapį: spustelėkite ant žalios mygtukų su juodo kryžiaus žemyn,; žalią mygtuką su brūkšneliu, jei norite nutolinti; arba žalių rodyklių gretimoms žemėlapius.


METAR-TAF: